createdAt,value
2022-10-09T00:00:00.291Z,93
2022-10-09T00:16:02.458Z,94
2022-10-09T00:31:04.509Z,94
2022-10-09T00:46:01.618Z,93
2022-10-09T01:00:03.789Z,93
2022-10-09T01:16:01.270Z,93
2022-10-09T01:31:03.489Z,94
2022-10-09T01:46:00.704Z,94
2022-10-09T02:00:02.608Z,94
2022-10-09T02:15:59.905Z,94
2022-10-09T02:31:02.274Z,94
2022-10-09T02:46:04.561Z,94
2022-10-09T03:00:01.820Z,94
2022-10-09T03:16:04.244Z,94
2022-10-09T03:31:01.652Z,93
2022-10-09T03:46:03.616Z,94
2022-10-09T04:00:00.481Z,93
2022-10-09T04:16:02.908Z,92
2022-10-09T04:31:00.100Z,92
2022-10-09T04:46:02.456Z,92
2022-10-09T05:00:04.415Z,92
2022-10-09T05:16:01.850Z,92
2022-10-09T05:31:04.239Z,92
2022-10-09T05:46:01.536Z,92
2022-10-09T06:00:03.539Z,92
2022-10-09T06:16:00.779Z,92
2022-10-09T06:31:03.038Z,92
2022-10-09T06:46:01.132Z,93
2022-10-09T07:00:02.392Z,93
2022-10-09T07:16:03.987Z,93
2022-10-09T07:31:02.155Z,92
2022-10-09T07:46:04.445Z,92
2022-10-09T08:00:01.482Z,91
2022-10-09T08:16:03.816Z,90
2022-10-09T08:31:00.863Z,89
2022-10-09T08:46:03.157Z,88
2022-10-09T09:00:00.241Z,87
2022-10-09T09:16:02.674Z,86
2022-10-09T09:31:04.647Z,84
2022-10-09T09:46:01.973Z,83
2022-10-09T10:00:03.921Z,80
2022-10-09T10:16:01.168Z,77
2022-10-09T10:31:03.650Z,76
2022-10-09T10:46:00.795Z,74
2022-10-09T11:00:02.931Z,73
2022-10-09T11:16:00.042Z,73
2022-10-09T11:31:02.043Z,71
2022-10-09T11:46:04.429Z,70
2022-10-09T12:00:01.541Z,69
2022-10-09T12:16:04.027Z,70
2022-10-09T12:31:01.289Z,67
2022-10-09T12:46:03.551Z,69
2022-10-09T13:00:00.674Z,67
2022-10-09T13:16:03.215Z,69
2022-10-09T13:31:00.400Z,68
2022-10-09T13:46:02.858Z,69
2022-10-09T14:00:04.745Z,68
2022-10-09T14:16:02.269Z,69
2022-10-09T14:31:04.425Z,69
2022-10-09T14:46:01.721Z,68
2022-10-09T15:00:04.138Z,68
2022-10-09T15:16:01.315Z,69
2022-10-09T15:31:05.067Z,71
2022-10-09T15:46:00.639Z,72
2022-10-09T16:00:02.448Z,74
2022-10-09T16:15:59.741Z,76
2022-10-09T16:31:02.162Z,78
2022-10-09T16:46:04.606Z,79
2022-10-09T17:00:01.943Z,79
2022-10-09T17:16:04.003Z,80
2022-10-09T17:31:00.979Z,79
2022-10-09T17:46:03.090Z,79
2022-10-09T18:00:00.125Z,79
2022-10-09T18:16:02.474Z,81
2022-10-09T18:31:04.475Z,82
2022-10-09T18:46:01.301Z,82
2022-10-09T19:00:03.503Z,84
2022-10-09T19:16:01.062Z,86
2022-10-09T19:31:03.414Z,87
2022-10-09T19:46:00.726Z,88
2022-10-09T20:00:02.888Z,88
2022-10-09T20:16:00.284Z,89
2022-10-09T20:31:02.564Z,90
2022-10-09T20:46:04.623Z,90
2022-10-09T21:00:01.771Z,90
2022-10-09T21:16:04.274Z,91
2022-10-09T21:31:01.718Z,91
2022-10-09T21:46:04.040Z,91
2022-10-09T22:00:01.320Z,91
2022-10-09T22:16:03.760Z,92
2022-10-09T22:31:01.336Z,92
2022-10-09T22:46:04.306Z,92
2022-10-09T23:00:00.643Z,92
2022-10-09T23:16:03.016Z,92
2022-10-09T23:31:00.315Z,93
2022-10-09T23:46:02.680Z,93
2022-10-09T23:59:59.871Z,93
